Time;durP1;ratioP1;P1;durP2;ratioP2;P2;SDS_P1;SDS_P2;PMS_P1;PMS_P2;Temp;Humidity;BMP_temperature;BMP_pressure;BME280_temperature;BME280_humidity;BME280_pressure;Samples;Min_cycle;Max_cycle;Signal;HPM_P1;HPM_P2
2022/10/24 00:02:22;;;;;;;16.73;11.75;;;11.00;99.90;;;;;;5095216;28;20035;-52
2022/10/24 00:04:48;;;;;;;21.08;11.00;;;11.00;99.90;;;;;;5095177;28;20479;-52
2022/10/24 00:07:14;;;;;;;16.85;13.25;;;11.00;99.90;;;;;;5095160;28;20139;-52
2022/10/24 00:09:40;;;;;;;20.30;15.02;;;11.00;99.90;;;;;;5093317;28;20555;-52
2022/10/24 00:12:06;;;;;;;18.13;14.30;;;11.10;99.90;;;;;;5094983;28;20032;-52
2022/10/24 00:14:33;;;;;;;17.77;14.75;;;11.10;99.90;;;;;;5094948;28;20032;-53
2022/10/24 00:16:58;;;;;;;21.55;15.75;;;11.10;99.90;;;;;;5095028;28;20103;-51
2022/10/24 00:19:24;;;;;;;18.60;14.90;;;11.20;99.90;;;;;;5095062;28;20126;-52
2022/10/24 00:21:50;;;;;;;22.10;16.00;;;11.20;99.90;;;;;;5094858;28;20123;-52
2022/10/24 00:24:17;;;;;;;19.17;16.35;;;11.20;99.90;;;;;;5094669;28;20024;-51
2022/10/24 00:26:43;;;;;;;19.67;14.77;;;11.30;99.90;;;;;;5095085;28;20125;-52
2022/10/24 00:29:09;;;;;;;16.63;12.75;;;11.30;99.90;;;;;;5093203;28;20051;-52
2022/10/24 00:31:35;;;;;;;15.27;13.55;;;11.40;99.90;;;;;;5094723;28;20054;-52
2022/10/24 00:34:01;;;;;;;19.60;12.90;;;11.30;99.90;;;;;;5094851;28;20031;-51
2022/10/24 00:36:27;;;;;;;22.90;13.40;;;11.20;99.90;;;;;;5094310;28;20031;-51
2022/10/24 00:38:53;;;;;;;26.67;13.50;;;11.10;99.90;;;;;;5093470;28;20434;-51
2022/10/24 00:41:29;;;;;;;23.00;14.50;;;11.20;99.90;;;;;;5093943;28;20020;-51
2022/10/24 00:44:21;;;;;;;16.55;13.63;;;11.20;99.90;;;;;;5093271;28;20483;-52
2022/10/24 00:47:07;;;;;;;26.13;13.55;;;11.20;99.90;;;;;;5094702;28;20047;-51
2022/10/24 00:49:44;;;;;;;18.80;14.02;;;11.20;99.90;;;;;;5094508;28;20352;-52
2022/10/24 00:52:11;;;;;;;20.40;14.98;;;11.20;99.90;;;;;;5094323;28;20027;-52
2022/10/24 00:54:38;;;;;;;21.17;14.05;;;11.20;99.90;;;;;;5094122;28;20093;-52
2022/10/24 00:57:28;;;;;;;21.73;13.63;;;11.20;99.90;;;;;;5092943;28;20107;-51
2022/10/24 01:00:01;;;;;;;19.20;12.55;;;11.20;99.90;;;;;;5094067;28;20028;-51
2022/10/24 01:02:26;;;;;;;16.83;11.33;;;11.20;99.90;;;;;;5093226;28;20106;-53
2022/10/24 01:04:55;;;;;;;22.48;15.15;;;11.20;99.90;;;;;;5093964;28;20099;-51
2022/10/24 01:07:39;;;;;;;25.33;13.43;;;11.20;99.90;;;;;;5094150;28;20028;-51
2022/10/24 01:10:18;;;;;;;16.50;13.80;;;11.30;99.90;;;;;;5094008;28;20198;-53
2022/10/24 01:12:59;;;;;;;21.77;13.52;;;11.30;99.90;;;;;;5092514;28;20503;-52
2022/10/24 01:15:57;;;;;;;17.73;13.43;;;11.30;99.90;;;;;;5093431;28;20036;-51
2022/10/24 01:18:25;;;;;;;17.02;12.43;;;11.30;99.90;;;;;;5093825;28;20020;-52
2022/10/24 01:21:23;;;;;;;18.40;12.93;;;11.30;99.90;;;;;;5093426;28;20043;-53
2022/10/24 01:24:27;;;;;;;15.77;12.73;;;11.30;99.90;;;;;;5093975;28;20087;-51
2022/10/24 01:26:55;;;;;;;17.83;12.43;;;11.20;99.90;;;;;;5093803;28;20115;-51
2022/10/24 01:29:46;;;;;;;14.68;12.88;;;11.20;99.90;;;;;;5093523;28;20024;-52
2022/10/24 01:32:33;;;;;;;37.03;16.83;;;11.30;99.90;;;;;;5093466;28;20022;-51
2022/10/24 01:35:01;;;;;;;17.65;12.82;;;11.30;99.90;;;;;;5093447;28;20028;-51
2022/10/24 01:37:33;;;;;;;26.17;13.50;;;11.30;99.90;;;;;;5093271;28;20032;-51
2022/10/24 01:40:06;;;;;;;18.45;12.55;;;11.30;99.90;;;;;;5093884;28;20028;-53
2022/10/24 01:42:37;;;;;;;22.23;13.18;;;11.30;99.90;;;;;;5093562;28;20024;-51
2022/10/24 01:45:04;;;;;;;16.13;12.23;;;11.40;99.90;;;;;;5093729;28;20502;-52
2022/10/24 01:47:37;;;;;;;17.75;12.57;;;11.40;99.90;;;;;;5093295;28;20032;-52
2022/10/24 01:50:07;;;;;;;16.15;13.00;;;11.40;99.90;;;;;;5093571;28;20052;-53
2022/10/24 01:52:36;;;;;;;17.40;12.77;;;11.40;99.90;;;;;;5092947;28;20093;-52
2022/10/24 01:55:03;;;;;;;27.90;12.35;;;11.50;99.90;;;;;;5093216;28;20039;-52
2022/10/24 01:57:31;;;;;;;16.63;11.68;;;11.50;99.90;;;;;;5092835;28;20028;-52
2022/10/24 01:59:57;;;;;;;16.00;12.55;;;11.50;99.90;;;;;;5093168;28;20028;-51
2022/10/24 02:02:40;;;;;;;14.82;12.05;;;11.50;99.90;;;;;;5092811;28;20545;-51
2022/10/24 02:05:11;;;;;;;16.75;11.10;;;11.50;99.90;;;;;;5093241;28;20047;-53
2022/10/24 02:07:41;;;;;;;18.63;11.90;;;11.50;99.90;;;;;;5092186;28;20061;-55
2022/10/24 02:10:17;;;;;;;13.88;11.98;;;11.50;99.90;;;;;;5092929;28;20063;-52
2022/10/24 02:12:48;;;;;;;15.50;11.70;;;11.50;99.90;;;;;;5092703;28;20032;-52
2022/10/24 02:15:23;;;;;;;18.88;12.25;;;11.50;99.90;;;;;;5092675;28;20437;-54
2022/10/24 02:17:49;;;;;;;19.63;12.10;;;11.50;99.90;;;;;;5092698;28;20024;-53
2022/10/24 02:20:15;;;;;;;23.65;11.85;;;11.50;99.90;;;;;;5091272;28;20076;-52
2022/10/24 02:22:46;;;;;;;14.57;11.57;;;11.60;99.90;;;;;;5092525;28;20055;-52
2022/10/24 02:25:30;;;;;;;19.15;11.50;;;11.50;99.90;;;;;;5092580;28;20418;-53
2022/10/24 02:28:01;;;;;;;14.32;10.10;;;11.60;99.90;;;;;;5091095;28;20024;-51
2022/10/24 02:30:28;;;;;;;17.63;11.38;;;11.50;99.90;;;;;;5091536;28;20455;-52
2022/10/24 02:32:56;;;;;;;14.68;10.93;;;11.50;99.90;;;;;;5091371;28;20172;-51
2022/10/24 02:35:27;;;;;;;13.73;10.77;;;11.60;99.90;;;;;;5091830;28;20031;-51
2022/10/24 02:38:00;;;;;;;12.85;11.55;;;11.60;99.90;;;;;;5091472;28;20035;-52
2022/10/24 02:40:25;;;;;;;13.43;10.43;;;11.70;99.90;;;;;;5091478;28;20020;-52
2022/10/24 02:42:54;;;;;;;12.27;10.20;;;11.70;99.90;;;;;;5091700;28;20028;-52
2022/10/24 02:45:22;;;;;;;16.20;9.75;;;11.70;99.90;;;;;;5090705;28;20034;-51
2022/10/24 02:47:49;;;;;;;14.70;10.40;;;11.70;99.90;;;;;;5092414;28;20024;-51
2022/10/24 02:50:15;;;;;;;21.90;8.95;;;11.70;99.90;;;;;;5091655;28;20035;-52
2022/10/24 02:52:42;;;;;;;12.13;8.13;;;11.80;99.90;;;;;;5092083;28;20032;-53
2022/10/24 02:55:10;;;;;;;11.45;9.32;;;11.80;99.90;;;;;;5091946;28;20104;-51
2022/10/24 02:57:36;;;;;;;13.73;10.25;;;11.80;99.90;;;;;;5091959;28;20028;-51
2022/10/24 03:00:01;;;;;;;17.70;9.05;;;11.80;99.90;;;;;;5092032;28;20027;-52
2022/10/24 03:02:27;;;;;;;15.32;8.43;;;11.80;99.90;;;;;;5091790;28;20031;-53
2022/10/24 03:04:52;;;;;;;16.15;8.00;;;11.80;99.90;;;;;;5091318;28;20078;-51
2022/10/24 03:07:18;;;;;;;14.73;8.07;;;11.90;99.90;;;;;;5091982;28;20028;-53
2022/10/24 03:09:44;;;;;;;12.63;8.32;;;11.80;99.90;;;;;;5091546;28;20036;-51
2022/10/24 03:12:14;;;;;;;14.02;9.68;;;11.90;99.90;;;;;;5091924;28;20067;-52
2022/10/24 03:14:40;;;;;;;14.55;7.78;;;11.90;99.90;;;;;;5091495;28;20100;-52
2022/10/24 03:17:06;;;;;;;16.15;7.95;;;11.90;99.90;;;;;;5091686;28;20043;-53
2022/10/24 03:19:31;;;;;;;11.38;8.00;;;11.90;99.90;;;;;;5090863;28;20028;-53
2022/10/24 03:21:57;;;;;;;14.52;7.82;;;11.90;99.90;;;;;;5091529;28;20024;-52
2022/10/24 03:24:23;;;;;;;19.60;8.10;;;11.90;99.90;;;;;;5089809;28;20028;-51
2022/10/24 03:26:51;;;;;;;12.40;8.02;;;11.90;99.90;;;;;;5091758;28;20081;-52
2022/10/24 03:29:17;;;;;;;9.65;7.50;;;11.90;99.90;;;;;;5091517;28;20115;-51
2022/10/24 03:31:43;;;;;;;9.13;6.80;;;11.90;99.90;;;;;;5091813;28;20032;-53
2022/10/24 03:34:08;;;;;;;16.33;8.43;;;12.10;99.90;;;;;;5090892;28;20091;-52
2022/10/24 03:36:34;;;;;;;10.38;6.93;;;12.10;99.90;;;;;;5090124;28;20047;-54
2022/10/24 03:39:00;;;;;;;10.50;6.93;;;12.10;99.90;;;;;;5091555;28;20038;-51
2022/10/24 03:41:25;;;;;;;14.23;8.13;;;12.10;99.90;;;;;;5090732;28;20016;-51
2022/10/24 03:43:51;;;;;;;16.50;7.43;;;12.10;99.90;;;;;;5091007;28;20154;-60
2022/10/24 03:46:17;;;;;;;16.42;9.10;;;12.00;99.90;;;;;;5090905;28;20062;-51
2022/10/24 03:48:42;;;;;;;24.38;8.85;;;12.00;99.90;;;;;;5089783;28;20031;-54
2022/10/24 03:51:08;;;;;;;13.60;7.97;;;12.00;99.90;;;;;;5088354;28;20039;-52
2022/10/24 03:53:34;;;;;;;11.80;7.88;;;12.00;99.90;;;;;;5091065;28;20059;-51
2022/10/24 03:55:59;;;;;;;18.95;8.13;;;12.00;99.90;;;;;;5090780;28;20063;-54
2022/10/24 03:58:25;;;;;;;15.13;9.18;;;12.00;99.90;;;;;;5091344;28;20105;-51
2022/10/24 04:00:51;;;;;;;17.15;8.50;;;12.00;99.90;;;;;;5091365;28;20080;-52
2022/10/24 04:03:17;;;;;;;15.75;8.32;;;12.00;99.90;;;;;;5090089;28;20020;-52
2022/10/24 04:05:42;;;;;;;14.88;7.63;;;12.00;99.90;;;;;;5089629;28;20028;-51
2022/10/24 04:08:08;;;;;;;21.75;7.38;;;11.90;99.90;;;;;;5089834;28;20039;-53
2022/10/24 04:10:34;;;;;;;14.57;8.77;;;12.00;99.90;;;;;;5090292;28;20032;-51
2022/10/24 04:13:00;;;;;;;13.57;8.98;;;12.00;99.90;;;;;;5089666;28;20027;-53
2022/10/24 04:15:25;;;;;;;19.23;9.90;;;12.00;99.90;;;;;;5088812;28;20036;-52
2022/10/24 04:17:51;;;;;;;14.75;9.30;;;12.00;99.90;;;;;;5089502;28;20027;-53
2022/10/24 04:20:19;;;;;;;19.73;9.68;;;12.00;99.90;;;;;;5090048;28;20043;-52
2022/10/24 04:22:45;;;;;;;13.45;9.38;;;12.00;99.90;;;;;;5090101;28;20077;-51
2022/10/24 04:25:11;;;;;;;20.88;8.02;;;12.00;99.90;;;;;;5089996;28;20034;-51
2022/10/24 04:27:39;;;;;;;14.43;7.57;;;12.00;99.90;;;;;;5089887;28;20016;-52
2022/10/24 04:30:10;;;;;;;10.00;7.53;;;12.00;99.90;;;;;;5091240;28;20398;-53
2022/10/24 04:32:35;;;;;;;10.70;8.10;;;12.00;99.90;;;;;;5095155;28;20032;-51
2022/10/24 04:35:02;;;;;;;22.45;9.90;;;12.00;99.90;;;;;;5094844;28;20024;-51
2022/10/24 04:37:28;;;;;;;14.65;8.80;;;12.00;99.90;;;;;;5093401;28;20035;-52
2022/10/24 04:39:54;;;;;;;20.45;8.20;;;12.00;99.90;;;;;;5094982;28;20020;-51
2022/10/24 04:42:23;;;;;;;15.27;9.10;;;12.00;99.90;;;;;;5094508;28;20045;-52
2022/10/24 04:44:48;;;;;;;11.60;8.63;;;12.00;99.90;;;;;;5094821;28;20495;-50
2022/10/24 04:47:14;;;;;;;25.38;9.07;;;12.00;99.90;;;;;;5094676;28;20032;-50
2022/10/24 04:49:40;;;;;;;10.63;7.70;;;12.00;99.90;;;;;;5094494;28;20529;-52
2022/10/24 04:52:05;;;;;;;11.90;8.23;;;12.00;99.90;;;;;;5094716;28;20020;-53
2022/10/24 04:54:31;;;;;;;22.77;9.05;;;12.00;99.90;;;;;;5094339;28;20495;-51
2022/10/24 04:56:57;;;;;;;13.68;8.18;;;12.00;99.90;;;;;;5094483;28;20029;-52
2022/10/24 04:59:23;;;;;;;9.00;8.07;;;12.00;99.90;;;;;;5094357;28;20115;-55
2022/10/24 05:01:48;;;;;;;14.30;7.70;;;12.00;99.90;;;;;;5094360;28;20024;-51
2022/10/24 05:04:14;;;;;;;10.38;7.90;;;12.00;99.90;;;;;;5094244;28;20060;-53
2022/10/24 05:06:40;;;;;;;11.68;7.43;;;12.00;99.90;;;;;;5094345;28;20027;-52
2022/10/24 05:09:06;;;;;;;19.05;8.98;;;12.10;99.90;;;;;;5093922;28;20498;-54
2022/10/24 05:11:31;;;;;;;11.90;8.05;;;12.10;99.90;;;;;;5094155;28;20023;-53
2022/10/24 05:13:57;;;;;;;14.98;9.25;;;12.10;99.90;;;;;;5094149;28;20028;-51
2022/10/24 05:16:23;;;;;;;19.42;9.68;;;12.00;99.90;;;;;;5093559;28;20024;-51
2022/10/24 05:18:48;;;;;;;18.13;9.32;;;12.10;99.90;;;;;;5094177;28;20478;-51
2022/10/24 05:21:15;;;;;;;18.50;8.13;;;12.10;99.90;;;;;;5093765;28;20077;-51
2022/10/24 05:23:40;;;;;;;15.23;13.55;;;12.10;99.90;;;;;;5093877;28;20410;-52
2022/10/24 05:26:06;;;;;;;21.23;10.55;;;12.10;99.90;;;;;;5093973;28;20024;-55
2022/10/24 05:28:32;;;;;;;18.88;11.20;;;12.10;99.90;;;;;;5092493;28;20028;-51
2022/10/24 05:30:57;;;;;;;21.90;10.48;;;12.00;99.90;;;;;;5093956;28;20459;-51
2022/10/24 05:33:23;;;;;;;19.58;9.40;;;12.00;99.90;;;;;;5093618;28;20095;-52
2022/10/24 05:35:50;;;;;;;25.35;9.85;;;12.10;99.90;;;;;;5093877;28;20028;-52
2022/10/24 05:38:16;;;;;;;28.35;9.77;;;12.10;99.90;;;;;;5093529;28;20095;-51
2022/10/24 05:40:41;;;;;;;13.05;8.20;;;12.10;99.90;;;;;;5093765;28;20107;-51
2022/10/24 05:43:07;;;;;;;22.75;7.70;;;12.00;99.90;;;;;;5092632;28;20027;-51
2022/10/24 05:45:33;;;;;;;18.75;8.75;;;12.10;99.90;;;;;;5093591;28;20413;-51
2022/10/24 05:47:59;;;;;;;12.23;7.32;;;12.10;99.90;;;;;;5092216;28;20487;-52
2022/10/24 05:50:25;;;;;;;20.45;8.95;;;12.10;99.90;;;;;;5093439;28;20043;-52
2022/10/24 05:52:52;;;;;;;16.45;8.30;;;12.10;99.90;;;;;;5093345;28;20634;-51
2022/10/24 05:55:17;;;;;;;21.50;8.90;;;12.10;99.90;;;;;;5093328;28;20123;-51
2022/10/24 05:57:43;;;;;;;14.82;8.88;;;12.20;99.90;;;;;;5093301;28;20099;-51
2022/10/24 06:00:12;;;;;;;11.95;8.00;;;12.20;99.90;;;;;;5093151;28;20337;-52
2022/10/24 06:02:39;;;;;;;15.55;8.50;;;12.20;99.90;;;;;;5093136;28;20032;-55
2022/10/24 06:05:05;;;;;;;25.13;13.93;;;12.20;99.90;;;;;;5091899;28;20024;-52
2022/10/24 06:07:31;;;;;;;22.48;10.43;;;12.20;99.90;;;;;;5092937;28;20490;-54
2022/10/24 06:09:56;;;;;;;20.42;8.38;;;12.20;99.90;;;;;;5092875;28;20040;-52
2022/10/24 06:12:23;;;;;;;19.38;10.05;;;12.20;99.90;;;;;;5092883;28;20024;-52
2022/10/24 06:14:48;;;;;;;14.10;9.52;;;12.20;99.90;;;;;;5093114;28;20020;-52
2022/10/24 06:17:14;;;;;;;19.65;10.00;;;12.20;99.90;;;;;;5092791;28;20495;-51
2022/10/24 06:19:40;;;;;;;14.43;10.55;;;12.20;99.90;;;;;;5092881;28;20024;-52
2022/10/24 06:22:07;;;;;;;69.15;32.55;;;12.20;99.90;;;;;;5092944;28;20102;-55
2022/10/24 06:24:37;;;;;;;33.60;16.35;;;12.20;99.90;;;;;;5092804;28;20028;-51
2022/10/24 06:27:05;;;;;;;28.65;15.60;;;12.30;99.90;;;;;;5092096;28;20056;-51
2022/10/24 06:29:31;;;;;;;30.23;14.82;;;12.30;99.90;;;;;;5091257;28;20032;-52
2022/10/24 06:31:56;;;;;;;24.85;15.35;;;12.30;99.90;;;;;;5091257;28;20062;-51
2022/10/24 06:34:22;;;;;;;24.67;12.50;;;12.30;99.90;;;;;;5090680;28;20047;-50
2022/10/24 06:36:48;;;;;;;19.75;9.85;;;12.30;99.90;;;;;;5090979;28;20114;-51
2022/10/24 06:42:36;;;;;;;16.70;12.15;;;12.30;99.90;;;;;;5091645;28;20031;-51
2022/10/24 06:45:02;;;;;;;26.10;16.42;;;12.40;99.90;;;;;;5092388;28;20024;-54
2022/10/24 06:47:27;;;;;;;23.90;12.68;;;12.30;99.90;;;;;;5092129;28;20724;-51
2022/10/24 06:49:53;;;;;;;23.05;13.00;;;12.30;99.90;;;;;;5092437;28;20028;-54
2022/10/24 06:52:19;;;;;;;30.63;14.07;;;12.40;99.90;;;;;;5091996;28;20039;-52
2022/10/24 06:54:45;;;;;;;20.42;13.15;;;12.40;99.90;;;;;;5092380;28;20509;-51
2022/10/24 06:57:10;;;;;;;29.92;14.25;;;12.40;99.90;;;;;;5092041;28;20058;-57
2022/10/24 06:59:36;;;;;;;24.52;12.95;;;12.50;99.90;;;;;;5092340;28;20048;-51
2022/10/24 07:02:01;;;;;;;25.13;13.88;;;12.50;99.90;;;;;;5090703;28;20025;-51
2022/10/24 07:04:27;;;;;;;20.42;11.68;;;12.50;99.90;;;;;;5091838;28;20043;-53
2022/10/24 07:06:53;;;;;;;22.30;13.73;;;12.50;99.90;;;;;;5092122;28;20060;-52
2022/10/24 07:09:18;;;;;;;24.63;10.65;;;12.50;99.90;;;;;;5090444;28;20116;-52
2022/10/24 07:11:44;;;;;;;20.30;13.70;;;12.50;99.90;;;;;;5092107;28;20077;-51
2022/10/24 07:14:11;;;;;;;19.75;12.07;;;12.50;99.90;;;;;;5091752;28;20031;-51
2022/10/24 07:16:37;;;;;;;19.90;12.00;;;12.60;99.90;;;;;;5091941;28;20109;-51
2022/10/24 07:19:03;;;;;;;16.80;10.13;;;12.60;99.90;;;;;;5091799;28;20028;-51
2022/10/24 07:21:31;;;;;;;19.30;9.98;;;12.60;99.90;;;;;;5091796;28;20020;-53
2022/10/24 07:23:57;;;;;;;20.38;9.55;;;12.60;99.90;;;;;;5091955;28;20027;-51
2022/10/24 07:26:25;;;;;;;20.10;9.05;;;12.70;99.90;;;;;;5091732;28;20493;-51
2022/10/24 07:28:57;;;;;;;16.73;9.52;;;12.60;99.90;;;;;;5091854;28;20052;-51
2022/10/24 07:31:25;;;;;;;23.23;9.65;;;12.70;99.90;;;;;;5091667;28;20024;-52
2022/10/24 07:33:51;;;;;;;22.38;9.52;;;12.70;99.90;;;;;;5091744;28;20027;-51
2022/10/24 07:36:23;;;;;;;15.68;8.35;;;12.70;99.90;;;;;;5091341;28;20145;-51
2022/10/24 07:38:50;;;;;;;23.27;11.02;;;12.70;99.90;;;;;;5091753;28;20016;-55
2022/10/24 07:41:15;;;;;;;23.15;10.07;;;12.80;99.90;;;;;;5089697;28;20541;-54
2022/10/24 07:43:41;;;;;;;27.45;15.40;;;12.80;99.90;;;;;;5091302;28;20115;-51
2022/10/24 07:46:08;;;;;;;15.95;10.38;;;12.80;99.90;;;;;;5090393;28;20055;-51
2022/10/24 07:48:35;;;;;;;13.60;10.45;;;12.90;99.90;;;;;;5090766;28;20020;-51
2022/10/24 07:51:05;;;;;;;13.27;9.35;;;13.10;99.90;;;;;;5090994;28;20021;-52
2022/10/24 07:53:31;;;;;;;16.85;10.70;;;13.10;99.90;;;;;;5090710;28;20048;-51
2022/10/24 07:55:58;;;;;;;27.30;12.40;;;13.00;99.90;;;;;;5090498;28;20521;-52
2022/10/24 07:58:24;;;;;;;22.13;12.52;;;13.00;99.90;;;;;;5090508;28;20527;-53
2022/10/24 08:00:50;;;;;;;32.15;12.85;;;13.00;99.90;;;;;;5091465;28;20074;-53
2022/10/24 08:03:15;;;;;;;21.40;10.88;;;13.00;99.90;;;;;;5089778;28;20026;-53
2022/10/24 08:05:41;;;;;;;21.77;10.57;;;13.10;99.90;;;;;;5092093;28;20031;-53
2022/10/24 08:08:08;;;;;;;25.27;13.68;;;13.20;99.90;;;;;;5095119;28;20047;-52
2022/10/24 08:10:33;;;;;;;20.88;10.23;;;13.20;99.90;;;;;;5095305;28;20016;-53
2022/10/24 08:12:59;;;;;;;14.40;10.90;;;13.30;99.90;;;;;;5095309;28;20032;-52
2022/10/24 08:15:26;;;;;;;18.63;12.55;;;13.40;99.90;;;;;;5095181;28;20036;-51
2022/10/24 08:17:53;;;;;;;19.80;11.75;;;13.60;99.90;;;;;;5095309;28;20016;-51
2022/10/24 08:20:19;;;;;;;29.30;20.08;;;13.70;99.90;;;;;;5095012;28;20095;-51
2022/10/24 08:22:45;;;;;;;38.67;20.83;;;13.70;99.90;;;;;;5095205;28;20031;-51
2022/10/24 08:25:20;;;;;;;25.63;15.60;;;13.80;99.90;;;;;;5094829;28;20028;-52
2022/10/24 08:27:45;;;;;;;17.08;10.93;;;13.90;99.90;;;;;;5094915;28;20020;-52
2022/10/24 08:30:11;;;;;;;25.42;12.80;;;14.00;99.90;;;;;;5095041;28;20035;-51
2022/10/24 08:32:37;;;;;;;14.50;8.70;;;14.00;99.90;;;;;;5094833;28;20031;-54
2022/10/24 08:35:04;;;;;;;19.90;9.02;;;14.10;99.90;;;;;;5094824;28;20076;-52
2022/10/24 08:37:30;;;;;;;14.90;6.20;;;14.20;99.90;;;;;;5094666;28;20028;-52
2022/10/24 08:39:56;;;;;;;14.90;6.15;;;14.20;99.90;;;;;;5095050;28;20016;-55
2022/10/24 08:42:23;;;;;;;12.65;6.25;;;14.20;99.90;;;;;;5094455;28;20020;-52
2022/10/24 08:44:50;;;;;;;18.00;9.27;;;14.10;99.90;;;;;;5092906;28;20471;-53
2022/10/24 08:47:27;;;;;;;22.15;13.40;;;14.10;99.90;;;;;;5094573;28;20073;-56
2022/10/24 08:50:27;;;;;;;17.48;8.20;;;14.20;99.90;;;;;;5094678;28;20074;-56
2022/10/24 08:53:26;;;;;;;25.55;9.57;;;14.30;99.90;;;;;;5094605;28;20020;-56
2022/10/24 08:55:54;;;;;;;8.32;4.82;;;14.60;99.90;;;;;;5094357;28;20024;-55
2022/10/24 08:58:43;;;;;;;24.02;7.85;;;14.80;99.90;;;;;;5094274;28;20054;-53
2022/10/24 09:01:34;;;;;;;13.35;4.88;;;14.80;99.90;;;;;;5094335;28;20012;-55
2022/10/24 09:04:05;;;;;;;22.77;7.68;;;14.80;99.90;;;;;;5094437;28;20028;-52
2022/10/24 09:06:32;;;;;;;27.25;9.27;;;14.80;99.90;;;;;;5094392;28;20034;-55
2022/10/24 09:09:09;;;;;;;15.20;6.65;;;14.80;99.90;;;;;;5094172;28;20498;-52
2022/10/24 09:11:51;;;;;;;15.55;5.88;;;14.80;99.90;;;;;;5093155;28;20020;-55
2022/10/24 09:14:48;;;;;;;24.98;8.40;;;14.90;99.90;;;;;;5093827;28;20016;-52
2022/10/24 09:17:41;;;;;;;15.88;6.30;;;15.00;99.90;;;;;;5091371;28;20521;-53
2022/10/24 09:20:19;;;;;;;23.38;7.03;;;15.10;99.90;;;;;;5092957;28;20046;-56
2022/10/24 09:22:45;;;;;;;18.60;6.30;;;15.30;99.90;;;;;;5093875;28;20024;-52
2022/10/24 09:25:15;;;;;;;15.85;5.80;;;15.30;99.90;;;;;;5093770;28;20363;-56
2022/10/24 09:27:41;;;;;;;12.43;5.88;;;15.50;99.90;;;;;;5093839;28;20641;-56
2022/10/24 09:30:15;;;;;;;15.43;5.55;;;15.70;99.90;;;;;;5093816;28;20020;-54
2022/10/24 09:32:42;;;;;;;21.13;8.18;;;15.70;99.90;;;;;;5093743;28;20031;-53
2022/10/24 09:35:17;;;;;;;21.98;8.50;;;15.80;99.90;;;;;;5093838;28;20028;-52
2022/10/24 09:37:47;;;;;;;23.38;7.40;;;15.90;99.90;;;;;;5093724;28;20352;-52
2022/10/24 09:40:19;;;;;;;23.55;10.43;;;15.70;99.90;;;;;;5093569;28;20039;-54
2022/10/24 09:43:01;;;;;;;15.90;8.07;;;15.60;99.90;;;;;;5093701;28;20095;-53
2022/10/24 09:45:26;;;;;;;19.30;7.65;;;15.60;99.90;;;;;;5093431;28;20035;-51
2022/10/24 09:48:06;;;;;;;21.85;6.90;;;15.60;99.90;;;;;;5092356;28;20020;-51
2022/10/24 09:50:34;;;;;;;17.90;6.60;;;15.70;99.90;;;;;;5093651;28;20038;-56
2022/10/24 09:53:02;;;;;;;14.70;5.50;;;15.90;99.90;;;;;;5093685;28;20387;-57
2022/10/24 09:55:28;;;;;;;14.63;5.45;;;16.10;99.90;;;;;;5093239;28;20039;-57
2022/10/24 09:57:58;;;;;;;21.88;6.93;;;16.70;99.90;;;;;;5093311;28;20030;-53
2022/10/24 10:00:28;;;;;;;18.15;5.78;;;16.80;99.90;;;;;;5101885;28;20341;-53
2022/10/24 10:03:04;;;;;;;11.38;6.25;;;16.80;99.90;;;;;;5093211;28;20385;-53
2022/10/24 10:05:46;;;;;;;24.17;5.35;;;16.70;99.90;;;;;;5092276;28;20020;-51
2022/10/24 10:08:22;;;;;;;15.75;6.13;;;16.70;99.90;;;;;;5092336;28;20433;-53
2022/10/24 10:10:58;;;;;;;16.58;5.82;;;16.60;99.90;;;;;;5093141;28;20028;-54
2022/10/24 10:13:26;;;;;;;18.55;5.10;;;16.60;99.90;;;;;;5091583;28;20520;-54
2022/10/24 10:15:51;;;;;;;12.05;4.97;;;16.70;99.90;;;;;;5092746;28;20036;-52
2022/10/24 10:18:35;;;;;;;11.48;4.97;;;17.00;99.90;;;;;;5092807;28;20099;-53
2022/10/24 10:21:07;;;;;;;18.63;6.07;;;17.00;99.90;;;;;;5092861;28;20371;-51
2022/10/24 10:23:35;;;;;;;18.35;5.80;;;16.80;99.90;;;;;;5092714;28;20023;-51
2022/10/24 10:26:21;;;;;;;11.52;6.65;;;16.80;99.90;;;;;;5092769;28;20427;-52
2022/10/24 10:28:56;;;;;;;11.48;6.15;;;16.70;99.90;;;;;;5092358;28;20054;-53
2022/10/24 10:31:37;;;;;;;22.08;5.75;;;16.50;99.90;;;;;;5092547;28;20448;-53
2022/10/24 10:34:21;;;;;;;21.73;5.82;;;16.50;99.90;;;;;;5092511;28;20028;-53
2022/10/24 10:37:05;;;;;;;13.55;4.93;;;16.50;99.90;;;;;;5092463;28;20455;-50
2022/10/24 10:39:50;;;;;;;11.13;5.10;;;16.70;99.90;;;;;;5092055;28;20464;-49
2022/10/24 10:42:24;;;;;;;24.95;4.90;;;16.80;99.90;;;;;;5092370;28;20072;-50
2022/10/24 10:45:08;;;;;;;14.15;4.15;;;16.80;99.90;;;;;;5092048;28;20060;-54
2022/10/24 10:47:49;;;;;;;10.70;4.82;;;16.70;99.90;;;;;;5092472;28;20069;-50
2022/10/24 10:50:46;;;;;;;18.45;5.18;;;16.50;99.90;;;;;;5091937;28;20020;-53
2022/10/24 10:53:42;;;;;;;17.00;5.60;;;16.40;99.90;;;;;;5089774;28;20039;-54
2022/10/24 10:56:28;;;;;;;12.57;5.15;;;16.30;99.90;;;;;;5064517;28;20017;-50
2022/10/24 10:59:04;;;;;;;13.40;4.82;;;16.20;99.90;;;;;;5073219;28;20036;-52
2022/10/24 11:01:43;;;;;;;12.98;5.88;;;16.10;99.90;;;;;;5081210;28;20064;-53
2022/10/24 11:04:25;;;;;;;19.23;5.00;;;16.10;99.90;;;;;;5081131;28;20066;-50
2022/10/24 11:06:56;;;;;;;17.02;6.47;;;16.00;99.90;;;;;;5081412;28;20022;-51
2022/10/24 11:09:25;;;;;;;11.65;5.35;;;16.00;99.90;;;;;;5081096;28;20067;-50
2022/10/24 11:12:10;;;;;;;13.25;5.63;;;16.10;99.90;;;;;;5081136;28;20511;-51
2022/10/24 11:14:45;;;;;;;16.38;5.18;;;16.30;99.90;;;;;;5080981;28;20032;-55
2022/10/24 11:17:20;;;;;;;22.65;6.15;;;16.50;99.90;;;;;;5076256;28;20033;-54
2022/10/24 11:19:55;;;;;;;14.15;5.53;;;16.70;99.90;;;;;;5060499;28;20052;-54
2022/10/24 11:22:29;;;;;;;15.50;4.95;;;16.90;99.90;;;;;;5060933;28;20368;-52
2022/10/24 11:25:01;;;;;;;14.43;5.40;;;17.40;99.90;;;;;;5060975;28;20029;-51
2022/10/24 11:27:43;;;;;;;10.73;4.82;;;17.70;99.90;;;;;;5060944;28;21927;-51
2022/10/24 11:30:15;;;;;;;13.98;5.82;;;17.90;99.90;;;;;;5060420;28;20021;-51
2022/10/24 11:32:55;;;;;;;11.00;4.68;;;18.00;99.90;;;;;;5060504;28;20029;-50
2022/10/24 11:35:28;;;;;;;15.02;5.68;;;18.00;99.90;;;;;;5075678;28;20131;-50
2022/10/24 11:38:20;;;;;;;11.45;5.28;;;17.80;99.90;;;;;;5060295;28;20025;-50
2022/10/24 11:40:54;;;;;;;9.98;6.15;;;17.60;99.90;;;;;;5068353;28;20032;-49
2022/10/24 11:43:27;;;;;;;12.13;5.85;;;17.40;99.90;;;;;;5071153;28;20024;-51
2022/10/24 11:46:15;;;;;;;9.82;6.30;;;17.20;99.90;;;;;;5071100;28;20024;-51
2022/10/24 11:48:56;;;;;;;13.68;6.05;;;17.00;99.90;;;;;;5070302;28;20037;-49
2022/10/24 11:51:58;;;;;;;17.48;5.85;;;16.70;99.90;;;;;;5070124;28;20024;-49
2022/10/24 11:54:32;;;;;;;15.40;5.07;;;16.70;99.90;;;;;;5017308;28;20511;-49
2022/10/24 11:57:03;;;;;;;16.52;6.25;;;16.60;99.90;;;;;;5070231;28;20032;-52
2022/10/24 11:59:29;;;;;;;17.77;5.13;;;16.70;99.90;;;;;;5070066;28;20035;-50
2022/10/24 12:01:55;;;;;;;13.73;6.53;;;16.90;99.90;;;;;;5070573;28;20086;-49
2022/10/24 12:04:24;;;;;;;30.60;19.52;;;16.90;99.90;;;;;;5069718;28;20025;-50
2022/10/24 12:07:11;;;;;;;29.02;14.88;;;16.70;99.90;;;;;;5069904;28;20097;-49
2022/10/24 12:09:55;;;;;;;22.35;6.68;;;16.60;99.90;;;;;;5070054;28;20048;-49
2022/10/24 12:12:42;;;;;;;16.42;7.40;;;16.60;99.90;;;;;;5070228;28;20394;-49
2022/10/24 12:15:29;;;;;;;26.90;7.80;;;16.40;99.90;;;;;;5085435;28;20036;-50
2022/10/24 12:18:36;;;;;;;22.40;7.55;;;16.30;99.90;;;;;;5070015;28;20031;-51
2022/10/24 12:21:07;;;;;;;23.92;10.23;;;16.20;99.90;;;;;;5014079;28;20032;-49
2022/10/24 12:23:33;;;;;;;18.13;6.72;;;16.30;99.90;;;;;;5069790;28;20459;-51
2022/10/24 12:26:05;;;;;;;28.25;7.20;;;16.20;99.90;;;;;;5069826;28;20260;-49
2022/10/24 12:28:32;;;;;;;23.33;12.73;;;16.20;99.90;;;;;;5069819;28;20021;-50
2022/10/24 12:31:17;;;;;;;15.23;8.18;;;16.20;99.90;;;;;;5069736;28;20031;-50
2022/10/24 12:33:44;;;;;;;16.15;8.57;;;16.30;99.90;;;;;;5085263;28;20035;-52
2022/10/24 12:36:10;;;;;;;20.65;7.63;;;16.30;99.90;;;;;;5069536;28;20081;-50
2022/10/24 12:38:36;;;;;;;39.67;16.95;;;16.40;99.90;;;;;;5069657;28;20056;-50
2022/10/24 12:41:20;;;;;;;51.63;17.60;;;16.30;99.90;;;;;;5069743;28;20055;-50
2022/10/24 12:43:49;;;;;;;42.03;19.95;;;16.10;99.90;;;;;;5069843;28;20384;-49
2022/10/24 12:46:14;;;;;;;12.32;5.68;;;16.10;99.90;;;;;;5085151;28;20464;-49
2022/10/24 12:48:55;;;;;;;44.63;17.73;;;16.10;99.90;;;;;;5069665;28;20060;-49
2022/10/24 12:51:38;;;;;;;13.90;6.18;;;16.00;99.90;;;;;;5069974;28;20036;-49
2022/10/24 12:54:04;;;;;;;14.27;6.13;;;15.90;99.90;;;;;;5073224;28;20030;-49
2022/10/24 12:56:32;;;;;;;14.57;6.45;;;15.90;99.90;;;;;;5088435;28;20116;-49